This is the latest recevied weather packets stored in our database for station/object KB2M. If no packets are shown the sender has not sent any weather packets the latest 1 day(s).
| Time | Temp. | Humidity | Pressure | Rain* | Wind** | Luminosity | Snow |
|---|---|---|---|---|---|---|---|
| 1778049080 | 18.89° C | 80% | 1017.6 hPa | 0 mm | 0.89 m/s, 183° | - | - |
| 1778048479 | 18.89° C | 80% | 1017.9 hPa | 0 mm | 0.89 m/s, 196° | - | - |
| 1778047878 | 18.89° C | 79% | 1017.9 hPa | 0 mm | 0.89 m/s, 197° | - | - |
| 1778047278 | 19.44° C | 80% | 1017.9 hPa | 0 mm | 0.45 m/s, 193° | - | - |
| 1778046677 | 19.44° C | 79% | 1018.2 hPa | 0 mm | 0.89 m/s, 193° | - | - |
| 1778046077 | 19.44° C | 79% | 1018.2 hPa | 0 mm | 0.45 m/s, 195° | - | - |
| 1778045476 | 19.44° C | 77% | 1018.2 hPa | 0 mm | 0.89 m/s, 182° | - | - |
| 1778044875 | 20° C | 77% | 1018.2 hPa | 0 mm | 0.89 m/s, 194° | - | - |
| 1778044275 | 20° C | 76% | 1018.2 hPa | 0 mm | 0.45 m/s, 195° | - | - |
| 1778043674 | 20° C | 77% | 1018.2 hPa | 0 mm | 0.89 m/s, 203° | - | - |
| 1778043074 | 20° C | 75% | 1018.2 hPa | 0 mm | 0.89 m/s, 213° | - | - |
| 1778042473 | 20.56° C | 74% | 1018.2 hPa | 0 mm | 0.89 m/s, 218° | - | - |
| 1778041873 | 20.56° C | 74% | 1018.2 hPa | 0 mm | 0.45 m/s, 219° | - | - |
| 1778041272 | 21.11° C | 73% | 1018.6 hPa | 0 mm | 0.45 m/s, 216° | - | - |
| 1778040672 | 21.11° C | 73% | 1018.2 hPa | 0 mm | 0.45 m/s, 192° | - | - |
| 1778040071 | 21.11° C | 72% | 1018.2 hPa | 0 mm | 0.45 m/s, 177° | - | - |
| 1778039471 | 21.11° C | 70% | 1018.2 hPa | 0 mm | 0.45 m/s, 174° | - | - |
| 1778038870 | 21.67° C | 70% | 1018.2 hPa | 0 mm | 0.89 m/s, 182° | - | - |
| 1778038269 | 22.22° C | 67% | 1017.9 hPa | 0 mm | 0.89 m/s, 161° | - | - |
| 1778037669 | 22.22° C | 65% | 1017.9 hPa | 0 mm | 1.34 m/s, 136° | - | - |
| 1778037068 | 22.22° C | 64% | 1017.6 hPa | 0 mm | 1.34 m/s, 125° | - | - |
| 1778036468 | 22.22° C | 64% | 1017.9 hPa | 0 mm | 0.89 m/s, 148° | - | - |
| 1778035867 | 22.22° C | 64% | 1017.9 hPa | 0 mm | 1.34 m/s, 137° | - | - |
| 1778035266 | 22.78° C | 63% | 1017.6 hPa | 0 mm | 0.89 m/s, 116° | - | - |
| 1778034666 | 22.78° C | 61% | 1017.9 hPa | 0 mm | 1.34 m/s, 118° | - | - |
* Rain latest hour (hover to see other rain measurements)
** Current wind speed in m/s (hover to see current wind gust speed)